Time;durP1;ratioP1;P1;durP2;ratioP2;P2;SDS_P1;SDS_P2;PMS_P1;PMS_P2;Temp;Humidity;BMP_temperature;BMP_pressure;BME280_temperature;BME280_humidity;BME280_pressure;Samples;Min_cycle;Max_cycle;Signal;HPM_P1;HPM_P2
2023/04/22 00:01:23;;;;;;;11.93;9.30;;;;;;;;;;5090407;27;20686;-77
2023/04/22 00:03:49;;;;;;;14.35;9.48;;;;;;;;;;5091275;27;20059;-77
2023/04/22 00:06:16;;;;;;;10.40;9.30;;;;;;;;;;5092420;27;20039;-76
2023/04/22 00:08:42;;;;;;;14.13;10.23;;;;;;;;;;5085740;27;20039;-77
2023/04/22 00:11:08;;;;;;;14.02;10.30;;;;;;;;;;5091826;27;20146;-76
2023/04/22 00:13:35;;;;;;;14.15;10.80;;;;;;;;;;5088481;27;20582;-76
2023/04/22 00:16:03;;;;;;;12.43;10.65;;;;;;;;;;5090663;27;20371;-76
2023/04/22 00:18:29;;;;;;;14.48;11.50;;;;;;;;;;5089481;27;20471;-77
2023/04/22 00:20:55;;;;;;;17.73;11.25;;;;;;;;;;5088325;27;20142;-77
2023/04/22 00:23:21;;;;;;;20.05;10.88;;;;;;;;;;5066995;27;20034;-77
2023/04/22 00:25:47;;;;;;;13.07;10.50;;;;;;;;;;5088002;27;20109;-77
2023/04/22 00:28:13;;;;;;;14.90;11.88;;;;;;;;;;5086679;27;20181;-77
2023/04/22 00:30:39;;;;;;;18.73;11.55;;;;;;;;;;5081818;27;20569;-77
2023/04/22 00:33:05;;;;;;;14.40;11.48;;;;;;;;;;5087851;27;20039;-77
2023/04/22 00:35:31;;;;;;;15.55;10.95;;;;;;;;;;5090124;27;20046;-77
2023/04/22 00:37:57;;;;;;;16.80;11.43;;;;;;;;;;5086712;27;21257;-77
2023/04/22 00:40:24;;;;;;;15.05;11.15;;;;;;;;;;5089741;27;20068;-77
2023/04/22 00:42:50;;;;;;;15.38;10.90;;;;;;;;;;5072694;28;20051;-77
2023/04/22 00:45:18;;;;;;;15.63;11.20;;;;;;;;;;5069440;27;20039;-77
2023/04/22 00:47:45;;;;;;;12.63;11.30;;;;;;;;;;5073387;27;20058;-78
2023/04/22 00:50:11;;;;;;;22.52;12.07;;;;;;;;;;5086419;27;20134;-77
2023/04/22 00:52:38;;;;;;;16.45;11.45;;;;;;;;;;5088704;27;20402;-77
2023/04/22 00:55:04;;;;;;;16.00;12.13;;;;;;;;;;5072745;28;20036;-77
2023/04/22 00:57:30;;;;;;;16.45;11.43;;;;;;;;;;5098864;27;20047;-77
2023/04/22 00:59:57;;;;;;;14.93;12.10;;;;;;;;;;5092022;27;20068;-77
2023/04/22 01:02:23;;;;;;;20.60;11.90;;;;;;;;;;5077786;28;20040;-78
2023/04/22 01:04:49;;;;;;;15.88;12.02;;;;;;;;;;5093544;27;20077;-78
2023/04/22 01:07:15;;;;;;;15.73;11.93;;;;;;;;;;5101806;27;20067;-77
2023/04/22 01:09:41;;;;;;;14.68;11.10;;;;;;;;;;5090588;27;20039;-77
2023/04/22 01:12:07;;;;;;;13.98;11.13;;;;;;;;;;5094900;27;20529;-77
2023/04/22 01:14:34;;;;;;;16.42;12.93;;;;;;;;;;5090914;27;20055;-77
2023/04/22 01:17:01;;;;;;;13.85;11.90;;;;;;;;;;5089572;27;20043;-77
2023/04/22 01:19:28;;;;;;;20.75;13.73;;;;;;;;;;5090552;28;20501;-77
2023/04/22 01:21:54;;;;;;;16.95;12.35;;;;;;;;;;5086513;27;20055;-77
2023/04/22 01:24:21;;;;;;;19.40;12.45;;;;;;;;;;5089011;27;20559;-77
2023/04/22 01:26:47;;;;;;;16.02;11.32;;;;;;;;;;5088039;27;20070;-77
2023/04/22 01:29:14;;;;;;;15.40;12.30;;;;;;;;;;5096882;27;20051;-77
2023/04/22 01:31:41;;;;;;;13.30;11.90;;;;;;;;;;5087412;27;20048;-78
2023/04/22 01:34:07;;;;;;;13.00;11.13;;;;;;;;;;5084179;27;21572;-77
2023/04/22 01:36:33;;;;;;;12.73;11.40;;;;;;;;;;5062836;28;20039;-77
2023/04/22 01:38:59;;;;;;;17.92;11.88;;;;;;;;;;5086442;28;20516;-77
2023/04/22 01:41:25;;;;;;;16.00;12.05;;;;;;;;;;5085402;27;20035;-78
2023/04/22 01:43:57;;;;;;;13.82;11.32;;;;;;;;;;5090624;28;20080;-77
2023/04/22 01:46:23;;;;;;;13.05;11.52;;;;;;;;;;5087633;27;20132;-77
2023/04/22 01:48:50;;;;;;;16.65;11.82;;;;;;;;;;5087210;27;20071;-77
2023/04/22 01:51:19;;;;;;;14.70;11.57;;;;;;;;;;5075439;27;20679;-77
2023/04/22 01:53:45;;;;;;;13.27;11.35;;;;;;;;;;5095085;27;20039;-77
2023/04/22 01:56:11;;;;;;;14.07;10.90;;;;;;;;;;5090330;27;20043;-77
2023/04/22 01:58:39;;;;;;;16.55;12.20;;;;;;;;;;5090822;27;20125;-77
2023/04/22 02:01:05;;;;;;;14.23;12.57;;;;;;;;;;5075737;27;20051;-77
2023/04/22 02:03:31;;;;;;;14.98;11.90;;;;;;;;;;5095812;27;20105;-77
2023/04/22 02:05:57;;;;;;;14.05;11.68;;;;;;;;;;5090503;27;20051;-77
2023/04/22 02:08:23;;;;;;;16.10;12.70;;;;;;;;;;5090823;27;20039;-76
2023/04/22 02:10:49;;;;;;;15.93;12.30;;;;;;;;;;5090088;27;20129;-76
2023/04/22 02:13:16;;;;;;;15.60;12.10;;;;;;;;;;5089314;27;21052;-76
2023/04/22 02:15:42;;;;;;;23.85;14.57;;;;;;;;;;5091878;27;20047;-77
2023/04/22 02:18:09;;;;;;;15.55;12.82;;;;;;;;;;5091214;27;20044;-77
2023/04/22 02:20:35;;;;;;;14.98;13.48;;;;;;;;;;5091840;27;21974;-77
2023/04/22 02:23:01;;;;;;;19.35;13.68;;;;;;;;;;5077494;27;20051;-77
2023/04/22 02:25:28;;;;;;;20.17;13.38;;;;;;;;;;5094180;27;20039;-76
2023/04/22 02:27:54;;;;;;;14.15;12.32;;;;;;;;;;5096821;27;20039;-77
2023/04/22 02:30:21;;;;;;;15.10;11.93;;;;;;;;;;5077502;27;20043;-77
2023/04/22 02:32:47;;;;;;;15.63;11.63;;;;;;;;;;5094363;27;20134;-77
2023/04/22 02:35:13;;;;;;;14.93;11.63;;;;;;;;;;5094997;27;20080;-77
2023/04/22 02:37:39;;;;;;;13.85;11.70;;;;;;;;;;5091446;27;20131;-76
2023/04/22 02:40:08;;;;;;;15.85;11.50;;;;;;;;;;5097045;27;20044;-76
2023/04/22 02:42:34;;;;;;;15.18;11.30;;;;;;;;;;5073134;27;20070;-77
2023/04/22 02:45:00;;;;;;;13.40;11.73;;;;;;;;;;5094240;27;20076;-77
2023/04/22 02:47:27;;;;;;;12.68;11.35;;;;;;;;;;5090919;27;20683;-77
2023/04/22 02:49:53;;;;;;;15.85;11.25;;;;;;;;;;5091847;27;20054;-77
2023/04/22 02:52:19;;;;;;;12.48;10.98;;;;;;;;;;5092606;27;20075;-76
2023/04/22 02:54:45;;;;;;;16.83;11.30;;;;;;;;;;5090614;27;20039;-77
2023/04/22 02:57:11;;;;;;;12.68;10.68;;;;;;;;;;5083952;27;20110;-76
2023/04/22 02:59:37;;;;;;;12.00;10.77;;;;;;;;;;5085644;27;20051;-76
2023/04/22 03:02:03;;;;;;;11.55;10.35;;;;;;;;;;5089163;27;20047;-77
2023/04/22 03:04:31;;;;;;;11.88;10.65;;;;;;;;;;5086852;27;20994;-77
2023/04/22 03:06:57;;;;;;;15.20;11.40;;;;;;;;;;5082553;27;20054;-76
2023/04/22 03:09:23;;;;;;;12.85;10.63;;;;;;;;;;5066889;27;20158;-77
2023/04/22 03:11:49;;;;;;;14.30;11.65;;;;;;;;;;5074582;27;20055;-77
2023/04/22 03:14:15;;;;;;;14.38;11.63;;;;;;;;;;5087050;27;20043;-77
2023/04/22 03:16:41;;;;;;;14.02;11.68;;;;;;;;;;5090241;27;20113;-77
2023/04/22 03:19:08;;;;;;;16.48;12.15;;;;;;;;;;5089135;27;20059;-78
2023/04/22 03:21:34;;;;;;;11.88;10.60;;;;;;;;;;5096679;27;20036;-75
2023/04/22 03:24:00;;;;;;;16.83;11.73;;;;;;;;;;5095685;27;20047;-75
2023/04/22 03:26:26;;;;;;;14.48;12.65;;;;;;;;;;5101518;27;20050;-76
2023/04/22 03:28:52;;;;;;;18.95;14.45;;;;;;;;;;5100550;27;20039;-75
2023/04/22 03:31:18;;;;;;;14.02;12.52;;;;;;;;;;5098813;27;20047;-75
2023/04/22 03:33:44;;;;;;;15.00;13.43;;;;;;;;;;5102268;27;20383;-75
2023/04/22 03:36:10;;;;;;;16.98;13.48;;;;;;;;;;5102813;27;20332;-75
2023/04/22 03:38:36;;;;;;;15.68;13.98;;;;;;;;;;5099605;27;20767;-75
2023/04/22 03:41:02;;;;;;;17.20;13.23;;;;;;;;;;5105488;27;20205;-75
2023/04/22 03:43:28;;;;;;;15.60;13.95;;;;;;;;;;5088832;27;20046;-75
2023/04/22 03:45:54;;;;;;;16.73;14.32;;;;;;;;;;5089414;27;20050;-75
2023/04/22 03:48:20;;;;;;;17.33;15.48;;;;;;;;;;5087779;27;20580;-75
2023/04/22 03:50:46;;;;;;;17.63;13.80;;;;;;;;;;5081258;27;20039;-75
2023/04/22 03:53:13;;;;;;;15.35;13.73;;;;;;;;;;5090167;27;20057;-75
2023/04/22 03:55:39;;;;;;;16.20;13.82;;;;;;;;;;5087816;27;20048;-75
2023/04/22 03:58:05;;;;;;;18.83;14.05;;;;;;;;;;5086614;27;20176;-75
2023/04/22 04:00:31;;;;;;;18.02;13.98;;;;;;;;;;5088312;27;20051;-75
2023/04/22 04:02:57;;;;;;;17.73;13.32;;;;;;;;;;5085042;27;20154;-75
2023/04/22 04:05:23;;;;;;;18.95;13.88;;;;;;;;;;5085855;27;20093;-75
2023/04/22 04:07:49;;;;;;;15.60;13.57;;;;;;;;;;5087696;27;20046;-75
2023/04/22 04:10:15;;;;;;;17.90;13.88;;;;;;;;;;5085616;27;20043;-75
2023/04/22 04:12:42;;;;;;;17.63;14.15;;;;;;;;;;5071733;27;20173;-75
2023/04/22 04:15:08;;;;;;;17.88;15.02;;;;;;;;;;5066945;27;20039;-73
2023/04/22 04:17:34;;;;;;;17.95;12.90;;;;;;;;;;5089866;27;20055;-73
2023/04/22 04:20:00;;;;;;;19.02;13.55;;;;;;;;;;5091658;27;20131;-73
2023/04/22 04:22:28;;;;;;;16.50;13.90;;;;;;;;;;5084984;27;20068;-73
2023/04/22 04:24:54;;;;;;;17.90;13.93;;;;;;;;;;5089615;27;20044;-73
2023/04/22 04:27:22;;;;;;;21.35;13.35;;;;;;;;;;5092138;27;20051;-73
2023/04/22 04:29:49;;;;;;;18.85;14.45;;;;;;;;;;5092541;27;20235;-74
2023/04/22 04:32:17;;;;;;;17.73;14.50;;;;;;;;;;5091521;27;22004;-73
2023/04/22 04:34:43;;;;;;;16.60;13.98;;;;;;;;;;5090906;27;20049;-73
2023/04/22 04:37:09;;;;;;;18.92;14.40;;;;;;;;;;5087481;27;20047;-74
2023/04/22 04:39:40;;;;;;;18.67;14.27;;;;;;;;;;5090482;27;20047;-74
2023/04/22 04:42:24;;;;;;;17.70;14.55;;;;;;;;;;5095489;27;20597;-73
2023/04/22 04:44:51;;;;;;;18.77;14.38;;;;;;;;;;5090358;27;20174;-73
2023/04/22 04:47:17;;;;;;;19.33;14.90;;;;;;;;;;5087721;27;20047;-76
2023/04/22 04:49:44;;;;;;;18.80;14.43;;;;;;;;;;5090454;27;22066;-76
2023/04/22 04:52:10;;;;;;;15.48;13.82;;;;;;;;;;5087779;27;20043;-76
2023/04/22 04:54:37;;;;;;;16.48;14.10;;;;;;;;;;5085560;27;20038;-76
2023/04/22 04:57:05;;;;;;;17.15;14.07;;;;;;;;;;5083252;27;20044;-77
2023/04/22 04:59:31;;;;;;;16.65;13.38;;;;;;;;;;5084948;27;20120;-76
2023/04/22 05:01:57;;;;;;;17.33;13.40;;;;;;;;;;5089278;27;20728;-75
2023/04/22 05:04:23;;;;;;;17.52;14.20;;;;;;;;;;5086208;27;20051;-76
2023/04/22 05:06:49;;;;;;;18.63;13.48;;;;;;;;;;5087001;27;20123;-76
2023/04/22 05:09:17;;;;;;;20.33;13.60;;;;;;;;;;5084175;27;20146;-76
2023/04/22 05:11:43;;;;;;;15.52;13.95;;;;;;;;;;5088008;27;20035;-76
2023/04/22 05:14:09;;;;;;;15.43;13.52;;;;;;;;;;5086458;27;20174;-76
2023/04/22 05:16:36;;;;;;;16.58;13.50;;;;;;;;;;5090526;27;20047;-76
2023/04/22 05:19:02;;;;;;;16.27;13.95;;;;;;;;;;5087128;27;20113;-76
2023/04/22 05:21:28;;;;;;;16.55;14.68;;;;;;;;;;5091928;27;20036;-76
2023/04/22 05:23:54;;;;;;;17.80;13.80;;;;;;;;;;5060271;28;20046;-76
2023/04/22 05:26:20;;;;;;;16.80;13.68;;;;;;;;;;5084889;27;20046;-77
2023/04/22 05:28:46;;;;;;;19.13;14.07;;;;;;;;;;5083878;28;20067;-76
2023/04/22 05:31:12;;;;;;;16.10;14.38;;;;;;;;;;5086689;27;20067;-77
2023/04/22 05:33:38;;;;;;;19.55;13.90;;;;;;;;;;5081788;28;21030;-76
2023/04/22 05:36:05;;;;;;;19.58;14.18;;;;;;;;;;5062125;27;20775;-76
2023/04/22 05:38:31;;;;;;;17.45;14.48;;;;;;;;;;5083591;27;20069;-75
2023/04/22 05:40:57;;;;;;;19.48;13.77;;;;;;;;;;5085679;27;20071;-76
2023/04/22 05:43:23;;;;;;;16.00;13.68;;;;;;;;;;5085083;27;20046;-76
2023/04/22 05:45:49;;;;;;;19.65;13.52;;;;;;;;;;5081746;27;21082;-76
2023/04/22 05:48:15;;;;;;;16.73;13.73;;;;;;;;;;5087155;28;20065;-76
2023/04/22 05:50:41;;;;;;;17.58;13.98;;;;;;;;;;5084573;27;20047;-76
2023/04/22 05:53:07;;;;;;;16.35;13.27;;;;;;;;;;5084972;27;20046;-73
2023/04/22 05:55:33;;;;;;;16.45;13.18;;;;;;;;;;5093094;28;20123;-73
2023/04/22 05:57:59;;;;;;;15.77;13.30;;;;;;;;;;5092601;27;20043;-73
2023/04/22 06:00:26;;;;;;;18.27;13.95;;;;;;;;;;5088575;27;20058;-73
2023/04/22 06:02:52;;;;;;;19.20;12.80;;;;;;;;;;5092467;28;20078;-73
2023/04/22 06:05:18;;;;;;;22.48;13.60;;;;;;;;;;5080825;28;20128;-73
2023/04/22 06:07:44;;;;;;;15.48;12.50;;;;;;;;;;5081865;28;20040;-73
2023/04/22 06:10:10;;;;;;;16.10;12.95;;;;;;;;;;5064834;28;20047;-81
2023/04/22 06:12:36;;;;;;;18.17;13.40;;;;;;;;;;5087313;27;20075;-81
2023/04/22 06:15:02;;;;;;;15.63;12.80;;;;;;;;;;5089347;27;20142;-81
2023/04/22 06:17:29;;;;;;;16.23;13.15;;;;;;;;;;5087860;27;20047;-81
2023/04/22 06:19:55;;;;;;;15.20;13.13;;;;;;;;;;5083023;27;20035;-81
2023/04/22 06:22:21;;;;;;;15.35;12.73;;;;;;;;;;5083772;27;20420;-81
2023/04/22 06:24:47;;;;;;;20.92;13.38;;;;;;;;;;5090962;27;20075;-81
2023/04/22 06:27:13;;;;;;;17.17;14.23;;;;;;;;;;5091656;28;20609;-82
2023/04/22 06:29:39;;;;;;;20.75;13.45;;;;;;;;;;5092370;28;20047;-80
2023/04/22 06:32:05;;;;;;;19.88;12.20;;;;;;;;;;5090982;28;20052;-82
2023/04/22 06:34:32;;;;;;;14.57;12.10;;;;;;;;;;5070952;27;20172;-81
2023/04/22 06:36:58;;;;;;;15.68;12.25;;;;;;;;;;5083679;27;20051;-82
2023/04/22 06:39:24;;;;;;;16.80;12.30;;;;;;;;;;5094775;27;20054;-80
2023/04/22 06:41:50;;;;;;;15.10;12.20;;;;;;;;;;5096741;27;20132;-80
2023/04/22 06:44:16;;;;;;;16.30;12.10;;;;;;;;;;5089518;27;20084;-81
2023/04/22 06:46:42;;;;;;;16.83;11.40;;;;;;;;;;5093793;27;20038;-81
2023/04/22 06:49:08;;;;;;;19.05;12.13;;;;;;;;;;5092913;27;20173;-81
2023/04/22 06:51:34;;;;;;;20.30;13.00;;;;;;;;;;5104016;27;20046;-82
2023/04/22 06:54:00;;;;;;;12.75;11.15;;;;;;;;;;5097074;27;20085;-81
2023/04/22 06:56:26;;;;;;;17.17;11.85;;;;;;;;;;5092782;27;20044;-80
2023/04/22 06:58:52;;;;;;;17.38;11.60;;;;;;;;;;5088654;27;20126;-81
2023/04/22 07:01:19;;;;;;;14.07;11.80;;;;;;;;;;5064471;27;20069;-81
2023/04/22 07:03:45;;;;;;;15.23;12.13;;;;;;;;;;5087067;27;22382;-81
2023/04/22 07:06:11;;;;;;;16.27;11.25;;;;;;;;;;5074802;27;20047;-80
2023/04/22 07:08:37;;;;;;;15.60;11.15;;;;;;;;;;5084987;27;20082;-80
2023/04/22 07:11:03;;;;;;;17.35;11.50;;;;;;;;;;5086088;27;20094;-81
2023/04/22 07:13:32;;;;;;;14.35;11.05;;;;;;;;;;5105176;27;20031;-81
2023/04/22 07:15:59;;;;;;;13.15;10.30;;;;;;;;;;5089923;27;20075;-79
2023/04/22 07:18:25;;;;;;;16.27;10.88;;;;;;;;;;5086410;27;20057;-80
2023/04/22 07:20:52;;;;;;;14.10;11.13;;;;;;;;;;5096937;27;20070;-82
2023/04/22 07:23:18;;;;;;;13.80;10.73;;;;;;;;;;5091894;27;20095;-80
2023/04/22 07:25:44;;;;;;;13.23;10.90;;;;;;;;;;5074772;27;20043;-80
2023/04/22 07:28:10;;;;;;;15.80;11.65;;;;;;;;;;5094544;27;20207;-82
2023/04/22 07:30:36;;;;;;;16.00;12.07;;;;;;;;;;5095328;27;20044;-82
2023/04/22 07:33:02;;;;;;;12.32;10.90;;;;;;;;;;5098461;27;20081;-82
2023/04/22 07:35:29;;;;;;;15.85;10.95;;;;;;;;;;5095443;27;20170;-81
2023/04/22 07:37:55;;;;;;;12.45;10.75;;;;;;;;;;5091073;27;20031;-82
2023/04/22 07:40:21;;;;;;;16.52;11.00;;;;;;;;;;5090260;27;20043;-82
2023/04/22 07:42:48;;;;;;;15.38;11.43;;;;;;;;;;5067931;27;20039;-82
2023/04/22 07:45:14;;;;;;;13.63;11.23;;;;;;;;;;5089429;27;21923;-81
2023/04/22 07:47:40;;;;;;;13.55;10.57;;;;;;;;;;5091646;27;20044;-82
2023/04/22 07:50:06;;;;;;;13.27;11.27;;;;;;;;;;5094204;27;20108;-81
2023/04/22 07:52:32;;;;;;;12.02;10.82;;;;;;;;;;5090466;27;20039;-81
2023/04/22 07:54:58;;;;;;;13.02;11.57;;;;;;;;;;5090886;27;20082;-82
2023/04/22 07:57:25;;;;;;;13.18;11.43;;;;;;;;;;5087272;27;20039;-81
2023/04/22 07:59:51;;;;;;;12.38;10.93;;;;;;;;;;5066560;27;20044;-82
2023/04/22 08:02:17;;;;;;;15.55;11.50;;;;;;;;;;5077649;27;20051;-82
2023/04/22 08:04:43;;;;;;;13.60;10.63;;;;;;;;;;5089466;27;20409;-82
2023/04/22 08:07:09;;;;;;;14.13;10.95;;;;;;;;;;5089385;27;20043;-82
2023/04/22 08:09:36;;;;;;;12.25;10.52;;;;;;;;;;5084852;27;20035;-82
2023/04/22 08:12:02;;;;;;;14.57;11.05;;;;;;;;;;5090431;27;20124;-82
2023/04/22 08:14:28;;;;;;;15.88;11.18;;;;;;;;;;5093134;27;20067;-82
2023/04/22 08:16:54;;;;;;;14.38;10.77;;;;;;;;;;5095981;27;20530;-82
2023/04/22 08:19:20;;;;;;;12.73;10.82;;;;;;;;;;5104670;27;20496;-82
2023/04/22 08:21:47;;;;;;;13.18;10.63;;;;;;;;;;5087244;27;20096;-81
2023/04/22 08:24:13;;;;;;;11.73;10.05;;;;;;;;;;5097841;27;20040;-82
2023/04/22 08:26:39;;;;;;;18.70;10.43;;;;;;;;;;5092242;27;20043;-82
2023/04/22 08:29:06;;;;;;;12.25;10.95;;;;;;;;;;5100924;27;20051;-81
2023/04/22 08:31:33;;;;;;;16.65;11.20;;;;;;;;;;5106376;27;20036;-82
2023/04/22 08:33:59;;;;;;;11.35;10.18;;;;;;;;;;5107644;27;20051;-81
2023/04/22 08:36:26;;;;;;;11.85;10.52;;;;;;;;;;5118245;27;20054;-81
2023/04/22 08:38:55;;;;;;;15.05;11.27;;;;;;;;;;5088542;27;20048;-82
2023/04/22 08:41:24;;;;;;;14.13;10.65;;;;;;;;;;5069732;27;20182;-82
2023/04/22 08:43:52;;;;;;;11.48;10.23;;;;;;;;;;5092344;27;20081;-82
2023/04/22 08:46:20;;;;;;;11.38;10.10;;;;;;;;;;5076020;27;20068;-82
2023/04/22 08:48:50;;;;;;;15.25;10.45;;;;;;;;;;5095727;27;20035;-82
2023/04/22 08:51:17;;;;;;;13.35;10.15;;;;;;;;;;5078931;27;20729;-81
2023/04/22 08:53:44;;;;;;;11.80;10.43;;;;;;;;;;5090672;27;20067;-82
2023/04/22 08:56:13;;;;;;;12.25;10.95;;;;;;;;;;5091160;27;20039;-82
2023/04/22 08:58:40;;;;;;;16.45;10.57;;;;;;;;;;5092401;27;20122;-83
2023/04/22 09:01:07;;;;;;;11.63;9.57;;;;;;;;;;5090813;27;20138;-82
2023/04/22 09:03:34;;;;;;;12.00;10.05;;;;;;;;;;5066462;28;20674;-82
2023/04/22 09:06:03;;;;;;;11.25;9.98;;;;;;;;;;5094275;27;20047;-82
2023/04/22 09:08:31;;;;;;;10.95;9.13;;;;;;;;;;5097510;27;20114;-82
2023/04/22 09:10:58;;;;;;;9.73;8.73;;;;;;;;;;5091001;27;20051;-82
2023/04/22 09:13:26;;;;;;;12.93;9.07;;;;;;;;;;5096879;27;20487;-82
2023/04/22 09:15:52;;;;;;;12.57;9.65;;;;;;;;;;5091257;27;20530;-83
2023/04/22 09:18:18;;;;;;;11.25;9.02;;;;;;;;;;5110776;27;20462;-83
2023/04/22 09:20:46;;;;;;;11.27;9.30;;;;;;;;;;5097326;27;20050;-83
2023/04/22 09:23:13;;;;;;;11.52;9.23;;;;;;;;;;5092158;27;20043;-83
2023/04/22 09:25:40;;;;;;;16.17;9.88;;;;;;;;;;5093012;27;22226;-83
2023/04/22 09:28:10;;;;;;;10.75;9.68;;;;;;;;;;5098189;28;20065;-82
2023/04/22 09:30:36;;;;;;;12.80;9.35;;;;;;;;;;5090491;27;20510;-84
2023/04/22 09:33:06;;;;;;;19.08;9.38;;;;;;;;;;5066123;28;20606;-82
2023/04/22 09:35:36;;;;;;;12.93;8.68;;;;;;;;;;5086999;28;20509;-82
2023/04/22 09:38:05;;;;;;;9.23;8.32;;;;;;;;;;5089740;27;20544;-83
2023/04/22 09:40:31;;;;;;;10.25;9.18;;;;;;;;;;5066565;28;20047;-83
2023/04/22 09:42:59;;;;;;;11.35;9.40;;;;;;;;;;5098998;28;20492;-82
2023/04/22 09:45:26;;;;;;;10.77;8.98;;;;;;;;;;5091718;27;20059;-82
2023/04/22 09:47:53;;;;;;;10.15;8.88;;;;;;;;;;5089999;28;20051;-83
2023/04/22 09:50:20;;;;;;;10.88;8.80;;;;;;;;;;5094529;27;20050;-83
2023/04/22 09:52:54;;;;;;;10.35;8.73;;;;;;;;;;5093385;27;20077;-81
2023/04/22 09:55:21;;;;;;;10.05;8.38;;;;;;;;;;5092268;27;20058;-83
2023/04/22 09:57:50;;;;;;;9.80;8.35;;;;;;;;;;5092149;27;20078;-82
2023/04/22 10:00:17;;;;;;;8.93;8.10;;;;;;;;;;5087787;27;20047;-83
2023/04/22 10:02:43;;;;;;;10.02;8.70;;;;;;;;;;5091368;27;20058;-83
2023/04/22 10:05:11;;;;;;;9.63;8.63;;;;;;;;;;5066853;28;20151;-83
2023/04/22 10:07:38;;;;;;;11.60;8.35;;;;;;;;;;5076230;28;20058;-83
2023/04/22 10:10:07;;;;;;;9.77;8.35;;;;;;;;;;5099047;27;20054;-83
2023/04/22 10:12:34;;;;;;;11.15;8.27;;;;;;;;;;5092795;27;20047;-83
2023/04/22 10:15:00;;;;;;;8.73;7.80;;;;;;;;;;5094776;27;20521;-84
2023/04/22 10:17:29;;;;;;;7.80;7.00;;;;;;;;;;5092654;27;20078;-83
2023/04/22 10:19:56;;;;;;;14.82;7.82;;;;;;;;;;5106124;27;20049;-83
2023/04/22 10:22:22;;;;;;;12.00;7.40;;;;;;;;;;5100811;27;20055;-83
2023/04/22 10:24:49;;;;;;;8.43;6.93;;;;;;;;;;5100388;27;20122;-82
2023/04/22 10:27:20;;;;;;;9.70;7.35;;;;;;;;;;5107762;27;20046;-83
2023/04/22 10:29:46;;;;;;;8.30;7.03;;;;;;;;;;5103489;27;20538;-83
2023/04/22 10:32:18;;;;;;;7.90;7.20;;;;;;;;;;5098293;27;21000;-83
2023/04/22 10:34:48;;;;;;;7.22;6.50;;;;;;;;;;5098394;27;20039;-83
2023/04/22 10:37:17;;;;;;;9.75;7.60;;;;;;;;;;5096025;27;20036;-83
2023/04/22 10:40:03;;;;;;;8.55;7.45;;;;;;;;;;5105061;27;20065;-83
2023/04/22 10:42:29;;;;;;;7.05;6.32;;;;;;;;;;5110665;27;20070;-83
2023/04/22 10:45:00;;;;;;;9.70;7.07;;;;;;;;;;5100277;27;20120;-83
2023/04/22 10:47:28;;;;;;;7.43;6.50;;;;;;;;;;5098317;27;20295;-83
2023/04/22 10:50:09;;;;;;;8.68;6.43;;;;;;;;;;5101772;27;20040;-82
2023/04/22 10:52:35;;;;;;;7.55;6.60;;;;;;;;;;5104809;27;20077;-83
2023/04/22 10:55:02;;;;;;;6.30;5.70;;;;;;;;;;5105965;27;20042;-84
2023/04/22 10:57:35;;;;;;;9.02;6.25;;;;;;;;;;5103053;27;20052;-84
2023/04/22 11:00:01;;;;;;;6.40;5.83;;;;;;;;;;5101379;27;20046;-83
2023/04/22 11:02:27;;;;;;;8.85;7.95;;;;;;;;;;5098577;27;20035;-82
2023/04/22 11:05:13;;;;;;;9.20;7.97;;;;;;;;;;5085223;27;21357;-83
2023/04/22 11:07:41;;;;;;;9.70;8.05;;;;;;;;;;5097220;27;20035;-82
2023/04/22 11:10:08;;;;;;;12.68;9.07;;;;;;;;;;5093882;27;20039;-81
2023/04/22 11:12:37;;;;;;;11.55;7.43;;;;;;;;;;5089232;27;20043;-82
2023/04/22 11:15:06;;;;;;;9.80;6.82;;;;;;;;;;5092275;27;20039;-82
2023/04/22 11:17:32;;;;;;;8.82;6.45;;;;;;;;;;5095100;27;20236;-82
2023/04/22 11:19:58;;;;;;;9.57;6.97;;;;;;;;;;5093320;27;20055;-82
2023/04/22 11:22:25;;;;;;;8.52;6.32;;;;;;;;;;5097911;27;20051;-82
2023/04/22 11:24:58;;;;;;;6.32;5.57;;;;;;;;;;5088349;27;20188;-82
2023/04/22 11:27:25;;;;;;;7.72;6.60;;;;;;;;;;5092383;27;20051;-82
2023/04/22 11:30:01;;;;;;;7.82;7.03;;;;;;;;;;5090136;27;20394;-83
2023/04/22 11:32:27;;;;;;;9.45;5.85;;;;;;;;;;5090957;27;20407;-82
2023/04/22 11:34:53;;;;;;;5.53;5.03;;;;;;;;;;5074527;27;20039;-82
2023/04/22 11:37:20;;;;;;;10.23;5.40;;;;;;;;;;5083058;27;20043;-82
2023/04/22 11:39:46;;;;;;;7.75;6.13;;;;;;;;;;5089517;27;20142;-83
2023/04/22 11:42:12;;;;;;;6.60;5.03;;;;;;;;;;5075325;27;20559;-82
2023/04/22 11:44:39;;;;;;;7.03;5.35;;;;;;;;;;5090163;27;20036;-83
2023/04/22 11:47:05;;;;;;;10.00;4.72;;;;;;;;;;5088885;27;20043;-82
2023/04/22 11:49:31;;;;;;;5.28;4.30;;;;;;;;;;5090085;27;20046;-83
2023/04/22 11:51:58;;;;;;;6.35;4.45;;;;;;;;;;5090413;27;20051;-82
2023/04/22 11:54:34;;;;;;;5.47;4.97;;;;;;;;;;5081926;27;20051;-82
2023/04/22 11:57:05;;;;;;;6.43;5.78;;;;;;;;;;5086418;27;20532;-82
2023/04/22 11:59:31;;;;;;;8.30;5.40;;;;;;;;;;5088038;27;20155;-82
2023/04/22 12:01:57;;;;;;;8.80;5.65;;;;;;;;;;5087176;27;20097;-82
2023/04/22 12:04:23;;;;;;;7.55;5.60;;;;;;;;;;5088000;27;20057;-82
2023/04/22 12:06:51;;;;;;;6.53;4.88;;;;;;;;;;5087915;27;20122;-83
2023/04/22 12:09:17;;;;;;;6.03;4.25;;;;;;;;;;5087492;27;20962;-82
2023/04/22 12:11:46;;;;;;;5.43;4.93;;;;;;;;;;5084738;27;20047;-82
2023/04/22 12:14:12;;;;;;;5.65;4.93;;;;;;;;;;5087893;27;20039;-82
2023/04/22 12:16:42;;;;;;;4.72;4.32;;;;;;;;;;5089130;27;20655;-83
2023/04/22 12:19:08;;;;;;;7.15;4.70;;;;;;;;;;5092454;27;20392;-83
2023/04/22 12:21:35;;;;;;;5.18;4.22;;;;;;;;;;5100050;27;20541;-84
2023/04/22 12:24:03;;;;;;;7.40;4.03;;;;;;;;;;5095789;27;20120;-84
2023/04/22 12:26:30;;;;;;;5.40;4.22;;;;;;;;;;5094126;27;20043;-85
2023/04/22 12:28:57;;;;;;;4.18;3.78;;;;;;;;;;5094822;27;20046;-84
2023/04/22 12:31:23;;;;;;;5.30;3.65;;;;;;;;;;5093281;27;20133;-84
2023/04/22 12:33:49;;;;;;;5.10;3.60;;;;;;;;;;5092482;27;20043;-84
2023/04/22 12:36:16;;;;;;;6.45;4.20;;;;;;;;;;5093778;27;20542;-85
2023/04/22 12:38:42;;;;;;;5.82;4.20;;;;;;;;;;5096542;27;20031;-84
2023/04/22 12:41:08;;;;;;;7.22;4.07;;;;;;;;;;5095555;27;20721;-84
2023/04/22 12:43:35;;;;;;;6.80;4.55;;;;;;;;;;5088591;27;20470;-85
2023/04/22 12:46:05;;;;;;;4.68;3.85;;;;;;;;;;5073067;27;20039;-84
2023/04/22 12:48:31;;;;;;;7.85;4.50;;;;;;;;;;5095852;27;20062;-84
2023/04/22 12:50:58;;;;;;;6.05;4.38;;;;;;;;;;5086814;27;20054;-84
2023/04/22 12:53:25;;;;;;;4.60;4.20;;;;;;;;;;5094459;27;20051;-84
2023/04/22 12:55:51;;;;;;;5.57;4.43;;;;;;;;;;5095324;27;20040;-84
2023/04/22 12:58:17;;;;;;;9.70;4.22;;;;;;;;;;5073110;27;20048;-84
2023/04/22 13:00:43;;;;;;;7.38;4.90;;;;;;;;;;5087054;27;20054;-86
2023/04/22 13:03:10;;;;;;;5.30;4.80;;;;;;;;;;5088049;27;20515;-86
2023/04/22 13:05:38;;;;;;;6.30;5.10;;;;;;;;;;5091507;27;20039;-85
2023/04/22 13:08:04;;;;;;;9.48;5.35;;;;;;;;;;5095509;27;20088;-85
2023/04/22 13:10:30;;;;;;;6.35;5.75;;;;;;;;;;5092107;27;20042;-83
2023/04/22 13:12:57;;;;;;;7.85;5.75;;;;;;;;;;5092754;27;20051;-85
2023/04/22 13:15:25;;;;;;;6.50;5.90;;;;;;;;;;5094809;28;20043;-84
2023/04/22 13:17:51;;;;;;;6.72;5.93;;;;;;;;;;5097926;27;20778;-85
2023/04/22 13:20:18;;;;;;;7.47;6.10;;;;;;;;;;5094451;27;20052;-84
2023/04/22 13:22:46;;;;;;;7.20;6.40;;;;;;;;;;5074056;28;20040;-84
2023/04/22 13:25:12;;;;;;;7.50;5.60;;;;;;;;;;5098781;27;20036;-84
2023/04/22 13:27:38;;;;;;;7.68;5.85;;;;;;;;;;5096667;27;20127;-84
2023/04/22 13:30:06;;;;;;;6.13;5.53;;;;;;;;;;5095392;28;20051;-83
2023/04/22 13:32:32;;;;;;;8.00;5.88;;;;;;;;;;5069727;28;20050;-83
2023/04/22 13:34:58;;;;;;;8.30;5.45;;;;;;;;;;5096205;27;20099;-82
2023/04/22 13:37:25;;;;;;;11.30;6.30;;;;;;;;;;5092558;28;20495;-83
2023/04/22 13:39:51;;;;;;;10.60;6.25;;;;;;;;;;5089022;27;20048;-83
2023/04/22 13:42:17;;;;;;;7.22;5.80;;;;;;;;;;5089249;28;20051;-77
2023/04/22 13:44:43;;;;;;;6.70;5.65;;;;;;;;;;5088279;27;20051;-78
2023/04/22 13:47:09;;;;;;;8.23;6.05;;;;;;;;;;5091061;27;20502;-81
2023/04/22 13:49:36;;;;;;;6.32;5.72;;;;;;;;;;5094307;27;20045;-82
2023/04/22 13:52:02;;;;;;;6.53;5.57;;;;;;;;;;5089393;27;20569;-83
2023/04/22 13:54:28;;;;;;;6.45;5.78;;;;;;;;;;5091884;27;21869;-80
2023/04/22 13:56:54;;;;;;;9.05;5.70;;;;;;;;;;5094054;27;20074;-78
2023/04/22 13:59:20;;;;;;;6.57;5.85;;;;;;;;;;5073599;27;20044;-78
2023/04/22 14:01:46;;;;;;;9.18;6.80;;;;;;;;;;5091574;27;20052;-78
2023/04/22 14:04:12;;;;;;;7.15;6.28;;;;;;;;;;5095573;27;20047;-78
2023/04/22 14:06:38;;;;;;;8.05;6.00;;;;;;;;;;5096505;27;20035;-78
2023/04/22 14:09:04;;;;;;;11.15;5.70;;;;;;;;;;5097776;27;20054;-77
2023/04/22 14:11:31;;;;;;;6.57;5.68;;;;;;;;;;5092950;27;20455;-78
2023/04/22 14:13:57;;;;;;;6.93;6.22;;;;;;;;;;5077783;27;20622;-78
2023/04/22 14:16:23;;;;;;;8.63;7.28;;;;;;;;;;5097340;27;20047;-78
2023/04/22 14:18:49;;;;;;;7.40;6.70;;;;;;;;;;5075609;27;20130;-78
2023/04/22 14:21:15;;;;;;;9.82;6.40;;;;;;;;;;5095175;27;20051;-78
2023/04/22 14:23:41;;;;;;;9.68;6.53;;;;;;;;;;5096131;27;20036;-79